sensor_id;sensor_type;location;lat;lon;timestamp;temperature;humidity
11609;DHT22;5860;52.018;8.536;2023-04-24T00:00:26;11.00;99.90
11609;DHT22;5860;52.018;8.536;2023-04-24T00:02:53;10.90;99.90
11609;DHT22;5860;52.018;8.536;2023-04-24T00:05:24;10.90;99.90
11609;DHT22;5860;52.018;8.536;2023-04-24T00:07:51;10.90;99.90
11609;DHT22;5860;52.018;8.536;2023-04-24T00:10:22;10.80;99.90
11609;DHT22;5860;52.018;8.536;2023-04-24T00:12:48;10.70;99.90
11609;DHT22;5860;52.018;8.536;2023-04-24T00:15:15;10.70;99.90
11609;DHT22;5860;52.018;8.536;2023-04-24T00:17:42;10.80;99.90
11609;DHT22;5860;52.018;8.536;2023-04-24T00:20:10;10.70;99.90
11609;DHT22;5860;52.018;8.536;2023-04-24T00:22:37;10.60;99.90
11609;DHT22;5860;52.018;8.536;2023-04-24T00:25:05;10.70;99.90
11609;DHT22;5860;52.018;8.536;2023-04-24T00:27:32;10.60;99.90
11609;DHT22;5860;52.018;8.536;2023-04-24T00:30:00;10.50;99.90
11609;DHT22;5860;52.018;8.536;2023-04-24T00:32:27;10.50;99.90
11609;DHT22;5860;52.018;8.536;2023-04-24T00:34:54;10.50;99.90
11609;DHT22;5860;52.018;8.536;2023-04-24T00:37:21;10.60;99.90
11609;DHT22;5860;52.018;8.536;2023-04-24T00:39:48;10.50;99.90
11609;DHT22;5860;52.018;8.536;2023-04-24T00:42:15;10.50;99.90
11609;DHT22;5860;52.018;8.536;2023-04-24T00:44:42;10.50;99.90
11609;DHT22;5860;52.018;8.536;2023-04-24T00:47:09;10.40;99.90
11609;DHT22;5860;52.018;8.536;2023-04-24T00:49:37;10.50;99.90
11609;DHT22;5860;52.018;8.536;2023-04-24T00:52:04;10.60;99.90
11609;DHT22;5860;52.018;8.536;2023-04-24T00:54:37;10.70;99.90
11609;DHT22;5860;52.018;8.536;2023-04-24T00:57:04;10.70;99.90
11609;DHT22;5860;52.018;8.536;2023-04-24T00:59:31;10.60;99.90
11609;DHT22;5860;52.018;8.536;2023-04-24T01:01:59;10.60;99.90
11609;DHT22;5860;52.018;8.536;2023-04-24T01:04:26;10.70;99.90
11609;DHT22;5860;52.018;8.536;2023-04-24T01:06:54;10.80;99.90
11609;DHT22;5860;52.018;8.536;2023-04-24T01:09:23;10.80;99.90
11609;DHT22;5860;52.018;8.536;2023-04-24T01:11:50;10.80;99.90
11609;DHT22;5860;52.018;8.536;2023-04-24T01:14:18;10.80;99.90
11609;DHT22;5860;52.018;8.536;2023-04-24T01:16:44;10.80;99.90
11609;DHT22;5860;52.018;8.536;2023-04-24T01:19:11;10.80;99.90
11609;DHT22;5860;52.018;8.536;2023-04-24T01:21:40;10.70;99.90
11609;DHT22;5860;52.018;8.536;2023-04-24T01:24:08;10.70;99.90
11609;DHT22;5860;52.018;8.536;2023-04-24T01:26:35;10.70;99.90
11609;DHT22;5860;52.018;8.536;2023-04-24T01:29:02;10.70;99.90
11609;DHT22;5860;52.018;8.536;2023-04-24T01:31:30;10.70;99.90
11609;DHT22;5860;52.018;8.536;2023-04-24T01:33:57;10.80;99.90
11609;DHT22;5860;52.018;8.536;2023-04-24T01:36:25;10.70;99.90
11609;DHT22;5860;52.018;8.536;2023-04-24T01:38:53;10.70;99.90
11609;DHT22;5860;52.018;8.536;2023-04-24T01:41:21;10.70;99.90
11609;DHT22;5860;52.018;8.536;2023-04-24T01:43:48;10.50;99.90
11609;DHT22;5860;52.018;8.536;2023-04-24T01:46:16;10.40;99.90
11609;DHT22;5860;52.018;8.536;2023-04-24T01:48:45;10.40;99.90
11609;DHT22;5860;52.018;8.536;2023-04-24T01:51:11;10.30;99.90
11609;DHT22;5860;52.018;8.536;2023-04-24T01:53:39;10.30;99.90
11609;DHT22;5860;52.018;8.536;2023-04-24T01:56:06;10.30;99.90
11609;DHT22;5860;52.018;8.536;2023-04-24T01:58:33;10.20;99.90
11609;DHT22;5860;52.018;8.536;2023-04-24T02:01:00;10.20;99.90
11609;DHT22;5860;52.018;8.536;2023-04-24T02:03:27;10.20;99.90
11609;DHT22;5860;52.018;8.536;2023-04-24T02:05:54;10.20;99.90
11609;DHT22;5860;52.018;8.536;2023-04-24T02:08:21;10.20;99.90
11609;DHT22;5860;52.018;8.536;2023-04-24T02:10:49;10.00;99.90
11609;DHT22;5860;52.018;8.536;2023-04-24T02:13:15;10.10;99.90
11609;DHT22;5860;52.018;8.536;2023-04-24T02:15:42;10.10;99.90
11609;DHT22;5860;52.018;8.536;2023-04-24T02:18:09;10.00;99.90
11609;DHT22;5860;52.018;8.536;2023-04-24T02:20:38;10.00;99.90
11609;DHT22;5860;52.018;8.536;2023-04-24T02:23:05;10.00;99.90
11609;DHT22;5860;52.018;8.536;2023-04-24T02:25:33;9.90;99.90
11609;DHT22;5860;52.018;8.536;2023-04-24T02:28:00;9.90;99.90
11609;DHT22;5860;52.018;8.536;2023-04-24T02:30:27;9.80;99.90
11609;DHT22;5860;52.018;8.536;2023-04-24T02:32:54;9.80;99.90
11609;DHT22;5860;52.018;8.536;2023-04-24T02:35:22;9.80;99.90
11609;DHT22;5860;52.018;8.536;2023-04-24T02:37:49;9.80;99.90
11609;DHT22;5860;52.018;8.536;2023-04-24T02:40:16;9.80;99.90
11609;DHT22;5860;52.018;8.536;2023-04-24T02:42:43;9.60;99.90
11609;DHT22;5860;52.018;8.536;2023-04-24T02:45:11;9.70;99.90
11609;DHT22;5860;52.018;8.536;2023-04-24T02:47:38;9.70;99.90
11609;DHT22;5860;52.018;8.536;2023-04-24T02:50:05;9.70;99.90
11609;DHT22;5860;52.018;8.536;2023-04-24T02:52:32;9.70;99.90
11609;DHT22;5860;52.018;8.536;2023-04-24T02:54:59;9.70;99.90
11609;DHT22;5860;52.018;8.536;2023-04-24T02:57:26;9.70;99.90
11609;DHT22;5860;52.018;8.536;2023-04-24T02:59:56;9.60;99.90
11609;DHT22;5860;52.018;8.536;2023-04-24T03:02:23;9.60;99.90
11609;DHT22;5860;52.018;8.536;2023-04-24T03:04:50;9.60;99.90
11609;DHT22;5860;52.018;8.536;2023-04-24T03:07:17;9.70;99.90
11609;DHT22;5860;52.018;8.536;2023-04-24T03:09:47;9.70;99.90
11609;DHT22;5860;52.018;8.536;2023-04-24T03:12:14;9.80;99.90
11609;DHT22;5860;52.018;8.536;2023-04-24T03:14:43;10.00;99.90
11609;DHT22;5860;52.018;8.536;2023-04-24T03:17:10;10.00;99.90
11609;DHT22;5860;52.018;8.536;2023-04-24T03:19:37;10.00;99.90
11609;DHT22;5860;52.018;8.536;2023-04-24T03:22:05;10.10;99.90
11609;DHT22;5860;52.018;8.536;2023-04-24T03:24:32;10.10;99.90
11609;DHT22;5860;52.018;8.536;2023-04-24T03:26:59;10.20;99.90
11609;DHT22;5860;52.018;8.536;2023-04-24T03:29:26;10.20;99.90
11609;DHT22;5860;52.018;8.536;2023-04-24T03:31:55;10.20;99.90
11609;DHT22;5860;52.018;8.536;2023-04-24T03:34:23;10.20;99.90
11609;DHT22;5860;52.018;8.536;2023-04-24T03:36:49;10.20;99.90
11609;DHT22;5860;52.018;8.536;2023-04-24T03:39:16;10.20;99.90
11609;DHT22;5860;52.018;8.536;2023-04-24T03:41:43;10.20;99.90
11609;DHT22;5860;52.018;8.536;2023-04-24T03:44:10;10.30;99.90
11609;DHT22;5860;52.018;8.536;2023-04-24T03:46:37;10.20;99.90
11609;DHT22;5860;52.018;8.536;2023-04-24T03:49:04;10.30;99.90
11609;DHT22;5860;52.018;8.536;2023-04-24T03:51:31;10.30;99.90
11609;DHT22;5860;52.018;8.536;2023-04-24T03:53:58;10.30;99.90
11609;DHT22;5860;52.018;8.536;2023-04-24T03:56:25;10.20;99.90
11609;DHT22;5860;52.018;8.536;2023-04-24T03:58:52;10.20;99.90
11609;DHT22;5860;52.018;8.536;2023-04-24T04:01:19;10.20;99.90
11609;DHT22;5860;52.018;8.536;2023-04-24T04:03:47;10.10;99.90
11609;DHT22;5860;52.018;8.536;2023-04-24T04:06:14;10.20;99.90
11609;DHT22;5860;52.018;8.536;2023-04-24T04:08:41;10.20;99.90
11609;DHT22;5860;52.018;8.536;2023-04-24T04:11:08;10.10;99.90
11609;DHT22;5860;52.018;8.536;2023-04-24T04:13:35;10.00;99.90
11609;DHT22;5860;52.018;8.536;2023-04-24T04:16:02;10.10;99.90
11609;DHT22;5860;52.018;8.536;2023-04-24T04:18:29;10.20;99.90
11609;DHT22;5860;52.018;8.536;2023-04-24T04:20:56;10.10;99.90
11609;DHT22;5860;52.018;8.536;2023-04-24T04:23:23;10.20;99.90
11609;DHT22;5860;52.018;8.536;2023-04-24T04:25:50;10.20;99.90
11609;DHT22;5860;52.018;8.536;2023-04-24T04:28:18;10.20;99.90
11609;DHT22;5860;52.018;8.536;2023-04-24T04:30:46;10.20;99.90
11609;DHT22;5860;52.018;8.536;2023-04-24T04:33:13;10.20;99.90
11609;DHT22;5860;52.018;8.536;2023-04-24T04:35:41;10.30;99.90
11609;DHT22;5860;52.018;8.536;2023-04-24T04:38:09;10.30;99.90
11609;DHT22;5860;52.018;8.536;2023-04-24T04:40:37;10.30;99.90
11609;DHT22;5860;52.018;8.536;2023-04-24T04:43:04;10.40;99.90
11609;DHT22;5860;52.018;8.536;2023-04-24T04:45:31;10.40;99.90
11609;DHT22;5860;52.018;8.536;2023-04-24T04:47:59;10.50;99.90
11609;DHT22;5860;52.018;8.536;2023-04-24T04:50:27;10.50;99.90
11609;DHT22;5860;52.018;8.536;2023-04-24T04:52:54;10.40;99.90
11609;DHT22;5860;52.018;8.536;2023-04-24T04:55:23;10.40;99.90
11609;DHT22;5860;52.018;8.536;2023-04-24T04:57:51;10.30;99.90
11609;DHT22;5860;52.018;8.536;2023-04-24T05:00:18;10.10;99.90
11609;DHT22;5860;52.018;8.536;2023-04-24T05:02:45;9.90;99.90
11609;DHT22;5860;52.018;8.536;2023-04-24T05:05:12;9.90;99.90
11609;DHT22;5860;52.018;8.536;2023-04-24T05:07:40;9.90;99.90
11609;DHT22;5860;52.018;8.536;2023-04-24T05:10:07;9.80;99.90
11609;DHT22;5860;52.018;8.536;2023-04-24T05:12:34;9.80;99.90
11609;DHT22;5860;52.018;8.536;2023-04-24T05:15:01;9.60;99.90
11609;DHT22;5860;52.018;8.536;2023-04-24T05:17:29;9.60;99.90
11609;DHT22;5860;52.018;8.536;2023-04-24T05:19:56;9.60;99.90
11609;DHT22;5860;52.018;8.536;2023-04-24T05:22:23;9.60;99.90
11609;DHT22;5860;52.018;8.536;2023-04-24T05:24:50;9.60;99.90
11609;DHT22;5860;52.018;8.536;2023-04-24T05:27:18;9.70;99.90
11609;DHT22;5860;52.018;8.536;2023-04-24T05:29:45;9.70;99.90
11609;DHT22;5860;52.018;8.536;2023-04-24T05:32:12;9.80;99.90
11609;DHT22;5860;52.018;8.536;2023-04-24T05:34:38;9.80;99.90
11609;DHT22;5860;52.018;8.536;2023-04-24T05:37:05;9.80;99.90
11609;DHT22;5860;52.018;8.536;2023-04-24T05:39:35;9.90;99.90
11609;DHT22;5860;52.018;8.536;2023-04-24T05:42:03;9.90;99.90
11609;DHT22;5860;52.018;8.536;2023-04-24T05:44:31;9.90;99.90
11609;DHT22;5860;52.018;8.536;2023-04-24T05:46:58;10.00;99.90
11609;DHT22;5860;52.018;8.536;2023-04-24T05:49:25;10.10;99.90
11609;DHT22;5860;52.018;8.536;2023-04-24T05:51:53;10.00;99.90
11609;DHT22;5860;52.018;8.536;2023-04-24T05:54:20;9.90;99.90
11609;DHT22;5860;52.018;8.536;2023-04-24T05:56:49;9.90;99.90
11609;DHT22;5860;52.018;8.536;2023-04-24T05:59:16;9.90;99.90
11609;DHT22;5860;52.018;8.536;2023-04-24T06:01:44;9.90;99.90
11609;DHT22;5860;52.018;8.536;2023-04-24T06:04:15;9.90;99.90
11609;DHT22;5860;52.018;8.536;2023-04-24T06:06:43;10.00;99.90
11609;DHT22;5860;52.018;8.536;2023-04-24T06:09:10;9.90;99.90
11609;DHT22;5860;52.018;8.536;2023-04-24T06:11:37;10.00;99.90
11609;DHT22;5860;52.018;8.536;2023-04-24T06:14:04;10.00;99.90
11609;DHT22;5860;52.018;8.536;2023-04-24T06:16:32;9.90;99.90
11609;DHT22;5860;52.018;8.536;2023-04-24T06:18:59;9.90;99.90
11609;DHT22;5860;52.018;8.536;2023-04-24T06:21:26;10.00;99.90
11609;DHT22;5860;52.018;8.536;2023-04-24T06:23:57;10.10;99.90
11609;DHT22;5860;52.018;8.536;2023-04-24T06:26:24;10.00;99.90
11609;DHT22;5860;52.018;8.536;2023-04-24T06:28:53;10.00;99.90
11609;DHT22;5860;52.018;8.536;2023-04-24T06:31:25;10.00;99.90
11609;DHT22;5860;52.018;8.536;2023-04-24T06:33:52;10.00;99.90
11609;DHT22;5860;52.018;8.536;2023-04-24T06:36:19;10.00;99.90
11609;DHT22;5860;52.018;8.536;2023-04-24T06:38:46;10.00;99.90
11609;DHT22;5860;52.018;8.536;2023-04-24T06:41:13;10.00;99.90
11609;DHT22;5860;52.018;8.536;2023-04-24T06:43:40;10.00;99.90
11609;DHT22;5860;52.018;8.536;2023-04-24T06:46:08;10.00;99.90
11609;DHT22;5860;52.018;8.536;2023-04-24T06:48:35;9.90;99.90
11609;DHT22;5860;52.018;8.536;2023-04-24T06:51:02;10.00;99.90
11609;DHT22;5860;52.018;8.536;2023-04-24T06:53:29;10.00;99.90
11609;DHT22;5860;52.018;8.536;2023-04-24T06:55:56;10.00;99.90
11609;DHT22;5860;52.018;8.536;2023-04-24T06:58:24;10.00;99.90
11609;DHT22;5860;52.018;8.536;2023-04-24T07:00:52;10.00;99.90
11609;DHT22;5860;52.018;8.536;2023-04-24T07:03:19;10.10;99.90
11609;DHT22;5860;52.018;8.536;2023-04-24T07:05:46;10.20;99.90
11609;DHT22;5860;52.018;8.536;2023-04-24T07:08:14;10.20;99.90
11609;DHT22;5860;52.018;8.536;2023-04-24T07:10:44;10.20;99.90
11609;DHT22;5860;52.018;8.536;2023-04-24T07:13:11;10.20;99.90
11609;DHT22;5860;52.018;8.536;2023-04-24T07:15:38;10.00;99.90
11609;DHT22;5860;52.018;8.536;2023-04-24T07:18:06;10.10;99.90
11609;DHT22;5860;52.018;8.536;2023-04-24T07:20:33;10.20;99.90
11609;DHT22;5860;52.018;8.536;2023-04-24T07:23:01;10.20;99.90
11609;DHT22;5860;52.018;8.536;2023-04-24T07:25:29;10.30;99.90
11609;DHT22;5860;52.018;8.536;2023-04-24T07:27:56;10.20;99.90
11609;DHT22;5860;52.018;8.536;2023-04-24T07:30:23;10.20;99.90
11609;DHT22;5860;52.018;8.536;2023-04-24T07:32:50;10.30;99.90
11609;DHT22;5860;52.018;8.536;2023-04-24T07:35:17;10.20;99.90
11609;DHT22;5860;52.018;8.536;2023-04-24T07:37:44;10.30;99.90
11609;DHT22;5860;52.018;8.536;2023-04-24T07:40:13;10.40;99.90
11609;DHT22;5860;52.018;8.536;2023-04-24T07:42:40;10.50;99.90
11609;DHT22;5860;52.018;8.536;2023-04-24T07:45:07;10.40;99.90
11609;DHT22;5860;52.018;8.536;2023-04-24T07:47:34;10.30;99.90
11609;DHT22;5860;52.018;8.536;2023-04-24T07:50:04;10.40;99.90
11609;DHT22;5860;52.018;8.536;2023-04-24T07:52:32;10.70;99.90
11609;DHT22;5860;52.018;8.536;2023-04-24T07:54:58;10.50;99.90
11609;DHT22;5860;52.018;8.536;2023-04-24T07:57:27;10.50;99.90
11609;DHT22;5860;52.018;8.536;2023-04-24T07:59:54;10.60;99.90
11609;DHT22;5860;52.018;8.536;2023-04-24T08:02:21;10.70;99.90
11609;DHT22;5860;52.018;8.536;2023-04-24T08:04:53;10.70;99.90
11609;DHT22;5860;52.018;8.536;2023-04-24T08:07:26;10.50;99.90
11609;DHT22;5860;52.018;8.536;2023-04-24T08:09:53;10.40;99.90
11609;DHT22;5860;52.018;8.536;2023-04-24T08:12:20;10.40;99.90
11609;DHT22;5860;52.018;8.536;2023-04-24T08:14:47;10.50;99.90
11609;DHT22;5860;52.018;8.536;2023-04-24T08:17:14;10.60;99.90
11609;DHT22;5860;52.018;8.536;2023-04-24T08:19:41;10.50;99.90
11609;DHT22;5860;52.018;8.536;2023-04-24T08:22:15;10.50;99.90
11609;DHT22;5860;52.018;8.536;2023-04-24T08:24:42;10.30;99.90
11609;DHT22;5860;52.018;8.536;2023-04-24T08:27:09;10.20;99.90
11609;DHT22;5860;52.018;8.536;2023-04-24T08:29:37;10.40;99.90
11609;DHT22;5860;52.018;8.536;2023-04-24T08:32:04;10.40;99.90
11609;DHT22;5860;52.018;8.536;2023-04-24T08:34:31;11.10;99.90
11609;DHT22;5860;52.018;8.536;2023-04-24T08:36:58;12.10;99.90
11609;DHT22;5860;52.018;8.536;2023-04-24T08:39:25;12.70;99.90
11609;DHT22;5860;52.018;8.536;2023-04-24T08:41:53;12.50;99.90
11609;DHT22;5860;52.018;8.536;2023-04-24T08:44:20;12.30;99.90
11609;DHT22;5860;52.018;8.536;2023-04-24T08:46:50;12.30;99.90
11609;DHT22;5860;52.018;8.536;2023-04-24T08:49:19;12.50;99.90
11609;DHT22;5860;52.018;8.536;2023-04-24T08:51:46;12.10;99.90
11609;DHT22;5860;52.018;8.536;2023-04-24T08:54:14;11.80;99.90
11609;DHT22;5860;52.018;8.536;2023-04-24T08:56:43;11.30;99.90
11609;DHT22;5860;52.018;8.536;2023-04-24T08:59:12;11.20;99.90
11609;DHT22;5860;52.018;8.536;2023-04-24T09:01:40;11.10;99.90
11609;DHT22;5860;52.018;8.536;2023-04-24T09:04:09;10.70;99.90
11609;DHT22;5860;52.018;8.536;2023-04-24T09:06:40;10.90;99.90
11609;DHT22;5860;52.018;8.536;2023-04-24T09:09:08;10.70;99.90
11609;DHT22;5860;52.018;8.536;2023-04-24T09:11:36;10.50;99.90
11609;DHT22;5860;52.018;8.536;2023-04-24T09:14:04;10.60;99.90
11609;DHT22;5860;52.018;8.536;2023-04-24T09:16:32;10.50;99.90
11609;DHT22;5860;52.018;8.536;2023-04-24T09:19:02;10.40;99.90
11609;DHT22;5860;52.018;8.536;2023-04-24T09:21:34;10.50;99.90
11609;DHT22;5860;52.018;8.536;2023-04-24T09:24:03;10.50;99.90
11609;DHT22;5860;52.018;8.536;2023-04-24T09:26:32;10.70;99.90
11609;DHT22;5860;52.018;8.536;2023-04-24T09:28:59;10.90;99.90
11609;DHT22;5860;52.018;8.536;2023-04-24T09:31:28;10.90;99.90
11609;DHT22;5860;52.018;8.536;2023-04-24T09:33:59;10.80;99.90
11609;DHT22;5860;52.018;8.536;2023-04-24T09:36:29;10.70;99.90
11609;DHT22;5860;52.018;8.536;2023-04-24T09:39:07;10.60;99.90
11609;DHT22;5860;52.018;8.536;2023-04-24T09:41:50;10.50;99.90
11609;DHT22;5860;52.018;8.536;2023-04-24T09:44:22;10.60;99.90
11609;DHT22;5860;52.018;8.536;2023-04-24T09:46:59;10.50;99.90
11609;DHT22;5860;52.018;8.536;2023-04-24T09:49:28;10.70;99.90
11609;DHT22;5860;52.018;8.536;2023-04-24T09:52:10;10.70;99.90
11609;DHT22;5860;52.018;8.536;2023-04-24T09:54:39;10.60;99.90
11609;DHT22;5860;52.018;8.536;2023-04-24T09:57:09;10.80;99.90
11609;DHT22;5860;52.018;8.536;2023-04-24T09:59:42;10.80;99.90
11609;DHT22;5860;52.018;8.536;2023-04-24T10:02:18;10.70;99.90
11609;DHT22;5860;52.018;8.536;2023-04-24T10:04:56;10.50;99.90
11609;DHT22;5860;52.018;8.536;2023-04-24T10:07:27;10.30;99.90
11609;DHT22;5860;52.018;8.536;2023-04-24T10:09:54;10.20;99.90
11609;DHT22;5860;52.018;8.536;2023-04-24T10:12:21;10.20;99.90
11609;DHT22;5860;52.018;8.536;2023-04-24T10:14:50;10.50;99.90
11609;DHT22;5860;52.018;8.536;2023-04-24T10:17:17;10.50;99.90
11609;DHT22;5860;52.018;8.536;2023-04-24T10:19:47;10.40;99.90
11609;DHT22;5860;52.018;8.536;2023-04-24T10:22:14;10.30;99.90
11609;DHT22;5860;52.018;8.536;2023-04-24T10:24:44;10.80;99.90
11609;DHT22;5860;52.018;8.536;2023-04-24T10:27:14;10.70;99.90
11609;DHT22;5860;52.018;8.536;2023-04-24T10:29:43;10.50;99.90
11609;DHT22;5860;52.018;8.536;2023-04-24T10:32:11;10.60;99.90
11609;DHT22;5860;52.018;8.536;2023-04-24T10:34:38;10.80;99.90
11609;DHT22;5860;52.018;8.536;2023-04-24T10:37:05;10.70;99.90
11609;DHT22;5860;52.018;8.536;2023-04-24T10:39:32;10.80;99.90
11609;DHT22;5860;52.018;8.536;2023-04-24T10:42:00;10.50;99.90
11609;DHT22;5860;52.018;8.536;2023-04-24T10:44:36;10.20;99.90
11609;DHT22;5860;52.018;8.536;2023-04-24T10:47:03;10.20;99.90
11609;DHT22;5860;52.018;8.536;2023-04-24T10:49:31;10.00;99.90
11609;DHT22;5860;52.018;8.536;2023-04-24T10:52:03;9.80;99.90
11609;DHT22;5860;52.018;8.536;2023-04-24T10:54:45;9.70;99.90
11609;DHT22;5860;52.018;8.536;2023-04-24T11:00:14;9.70;99.90
11609;DHT22;5860;52.018;8.536;2023-04-24T11:02:42;9.70;99.90
11609;DHT22;5860;52.018;8.536;2023-04-24T11:05:17;9.70;99.90
11609;DHT22;5860;52.018;8.536;2023-04-24T11:08:16;9.70;99.90
11609;DHT22;5860;52.018;8.536;2023-04-24T11:10:59;9.60;99.90
11609;DHT22;5860;52.018;8.536;2023-04-24T11:16:26;9.40;99.90
11609;DHT22;5860;52.018;8.536;2023-04-24T11:21:47;9.30;99.90
11609;DHT22;5860;52.018;8.536;2023-04-24T11:24:36;9.20;99.90
11609;DHT22;5860;52.018;8.536;2023-04-24T11:27:21;9.20;99.90
11609;DHT22;5860;52.018;8.536;2023-04-24T11:37:38;9.60;99.90
11609;DHT22;5860;52.018;8.536;2023-04-24T11:40:08;9.60;99.90
11609;DHT22;5860;52.018;8.536;2023-04-24T11:42:36;9.40;99.90
11609;DHT22;5860;52.018;8.536;2023-04-24T11:45:15;9.40;99.90
11609;DHT22;5860;52.018;8.536;2023-04-24T11:47:43;9.30;99.90
11609;DHT22;5860;52.018;8.536;2023-04-24T11:50:13;9.20;99.90
11609;DHT22;5860;52.018;8.536;2023-04-24T11:52:41;9.30;99.90
11609;DHT22;5860;52.018;8.536;2023-04-24T11:57:45;9.10;99.90
11609;DHT22;5860;52.018;8.536;2023-04-24T12:00:18;9.10;99.90
11609;DHT22;5860;52.018;8.536;2023-04-24T12:02:46;9.10;99.90
11609;DHT22;5860;52.018;8.536;2023-04-24T12:05:24;9.10;99.90
11609;DHT22;5860;52.018;8.536;2023-04-24T12:07:53;9.00;99.90
11609;DHT22;5860;52.018;8.536;2023-04-24T12:10:22;9.00;99.90
11609;DHT22;5860;52.018;8.536;2023-04-24T12:12:50;8.80;99.90
11609;DHT22;5860;52.018;8.536;2023-04-24T12:15:19;8.80;99.90
11609;DHT22;5860;52.018;8.536;2023-04-24T12:17:49;8.70;99.90
11609;DHT22;5860;52.018;8.536;2023-04-24T12:20:17;8.70;99.90
11609;DHT22;5860;52.018;8.536;2023-04-24T12:22:51;8.50;99.90
11609;DHT22;5860;52.018;8.536;2023-04-24T12:25:23;8.60;99.90
11609;DHT22;5860;52.018;8.536;2023-04-24T12:28:08;8.80;99.90
11609;DHT22;5860;52.018;8.536;2023-04-24T12:30:46;8.90;99.90
11609;DHT22;5860;52.018;8.536;2023-04-24T12:33:19;8.80;99.90
11609;DHT22;5860;52.018;8.536;2023-04-24T12:35:48;8.80;99.90
11609;DHT22;5860;52.018;8.536;2023-04-24T12:38:22;8.90;99.90
11609;DHT22;5860;52.018;8.536;2023-04-24T12:41:06;8.90;99.90
11609;DHT22;5860;52.018;8.536;2023-04-24T12:43:34;9.00;99.90
11609;DHT22;5860;52.018;8.536;2023-04-24T12:46:02;9.10;99.90
11609;DHT22;5860;52.018;8.536;2023-04-24T12:48:29;9.00;99.90
11609;DHT22;5860;52.018;8.536;2023-04-24T12:50:58;9.00;99.90
11609;DHT22;5860;52.018;8.536;2023-04-24T12:53:28;9.00;99.90
11609;DHT22;5860;52.018;8.536;2023-04-24T12:55:56;9.00;99.90
11609;DHT22;5860;52.018;8.536;2023-04-24T12:58:23;9.10;99.90
11609;DHT22;5860;52.018;8.536;2023-04-24T13:00:51;8.90;99.90
11609;DHT22;5860;52.018;8.536;2023-04-24T13:03:18;8.80;99.90
11609;DHT22;5860;52.018;8.536;2023-04-24T13:05:46;8.70;99.90
11609;DHT22;5860;52.018;8.536;2023-04-24T13:08:13;8.60;99.90
11609;DHT22;5860;52.018;8.536;2023-04-24T13:10:40;8.60;99.90
11609;DHT22;5860;52.018;8.536;2023-04-24T13:13:08;8.60;99.90
11609;DHT22;5860;52.018;8.536;2023-04-24T13:15:35;8.70;99.90
11609;DHT22;5860;52.018;8.536;2023-04-24T13:18:02;8.60;99.90
11609;DHT22;5860;52.018;8.536;2023-04-24T13:20:29;8.70;99.90
11609;DHT22;5860;52.018;8.536;2023-04-24T13:22:56;8.60;99.90
11609;DHT22;5860;52.018;8.536;2023-04-24T13:25:24;8.50;99.90
11609;DHT22;5860;52.018;8.536;2023-04-24T13:27:51;8.40;99.90
11609;DHT22;5860;52.018;8.536;2023-04-24T13:30:18;8.40;99.90
11609;DHT22;5860;52.018;8.536;2023-04-24T13:32:45;8.40;99.90
11609;DHT22;5860;52.018;8.536;2023-04-24T13:35:13;8.40;99.90
11609;DHT22;5860;52.018;8.536;2023-04-24T13:37:40;8.50;99.90
11609;DHT22;5860;52.018;8.536;2023-04-24T13:40:07;8.70;99.90
11609;DHT22;5860;52.018;8.536;2023-04-24T13:42:34;8.50;99.90
11609;DHT22;5860;52.018;8.536;2023-04-24T13:45:01;8.60;99.90
11609;DHT22;5860;52.018;8.536;2023-04-24T13:47:49;8.70;99.90
11609;DHT22;5860;52.018;8.536;2023-04-24T13:50:18;8.90;99.90
11609;DHT22;5860;52.018;8.536;2023-04-24T13:52:45;8.90;99.90
11609;DHT22;5860;52.018;8.536;2023-04-24T13:55:12;9.00;99.90
11609;DHT22;5860;52.018;8.536;2023-04-24T13:57:39;9.00;99.90
11609;DHT22;5860;52.018;8.536;2023-04-24T14:00:07;8.90;99.90
11609;DHT22;5860;52.018;8.536;2023-04-24T14:02:37;8.90;99.90
11609;DHT22;5860;52.018;8.536;2023-04-24T14:05:05;8.80;99.90
11609;DHT22;5860;52.018;8.536;2023-04-24T14:07:33;8.70;99.90
11609;DHT22;5860;52.018;8.536;2023-04-24T14:09:59;8.80;99.90
11609;DHT22;5860;52.018;8.536;2023-04-24T14:12:27;8.90;99.90
11609;DHT22;5860;52.018;8.536;2023-04-24T14:14:54;8.90;99.90
11609;DHT22;5860;52.018;8.536;2023-04-24T14:17:21;9.10;99.90
11609;DHT22;5860;52.018;8.536;2023-04-24T14:19:48;9.30;99.90
11609;DHT22;5860;52.018;8.536;2023-04-24T14:22:15;9.50;99.90
11609;DHT22;5860;52.018;8.536;2023-04-24T14:24:43;9.70;99.90
11609;DHT22;5860;52.018;8.536;2023-04-24T14:27:10;9.80;99.90
11609;DHT22;5860;52.018;8.536;2023-04-24T14:29:36;9.90;99.90
11609;DHT22;5860;52.018;8.536;2023-04-24T14:32:03;9.80;99.90
11609;DHT22;5860;52.018;8.536;2023-04-24T14:34:30;9.80;99.90
11609;DHT22;5860;52.018;8.536;2023-04-24T14:36:57;9.80;99.90
11609;DHT22;5860;52.018;8.536;2023-04-24T14:39:25;9.60;99.90
11609;DHT22;5860;52.018;8.536;2023-04-24T14:41:52;9.80;99.90
11609;DHT22;5860;52.018;8.536;2023-04-24T14:44:19;9.70;99.90
11609;DHT22;5860;52.018;8.536;2023-04-24T14:46:46;9.60;99.90
11609;DHT22;5860;52.018;8.536;2023-04-24T14:49:13;9.60;99.90
11609;DHT22;5860;52.018;8.536;2023-04-24T14:51:40;9.50;99.90
11609;DHT22;5860;52.018;8.536;2023-04-24T14:54:07;9.40;99.90
11609;DHT22;5860;52.018;8.536;2023-04-24T14:56:35;9.30;99.90
11609;DHT22;5860;52.018;8.536;2023-04-24T14:59:02;9.20;99.90
11609;DHT22;5860;52.018;8.536;2023-04-24T15:01:30;9.20;99.90
11609;DHT22;5860;52.018;8.536;2023-04-24T15:03:57;9.10;99.90
11609;DHT22;5860;52.018;8.536;2023-04-24T15:06:24;9.00;99.90
11609;DHT22;5860;52.018;8.536;2023-04-24T15:08:51;8.90;99.90
11609;DHT22;5860;52.018;8.536;2023-04-24T15:11:19;9.10;99.90
11609;DHT22;5860;52.018;8.536;2023-04-24T15:13:46;9.10;99.90
11609;DHT22;5860;52.018;8.536;2023-04-24T15:16:14;9.30;99.90
11609;DHT22;5860;52.018;8.536;2023-04-24T15:18:41;9.50;99.90
11609;DHT22;5860;52.018;8.536;2023-04-24T15:21:08;9.40;99.90
11609;DHT22;5860;52.018;8.536;2023-04-24T15:23:35;9.40;99.90
11609;DHT22;5860;52.018;8.536;2023-04-24T15:26:02;9.40;99.90
11609;DHT22;5860;52.018;8.536;2023-04-24T15:28:29;9.40;99.90
11609;DHT22;5860;52.018;8.536;2023-04-24T15:30:56;9.70;99.90
11609;DHT22;5860;52.018;8.536;2023-04-24T15:33:24;9.60;99.90
11609;DHT22;5860;52.018;8.536;2023-04-24T15:35:52;9.50;99.90
11609;DHT22;5860;52.018;8.536;2023-04-24T15:38:19;9.20;99.90
11609;DHT22;5860;52.018;8.536;2023-04-24T15:40:47;9.30;99.90
11609;DHT22;5860;52.018;8.536;2023-04-24T15:43:14;9.30;99.90
11609;DHT22;5860;52.018;8.536;2023-04-24T15:45:43;9.30;99.90
11609;DHT22;5860;52.018;8.536;2023-04-24T15:48:10;9.20;99.90
11609;DHT22;5860;52.018;8.536;2023-04-24T15:50:37;9.20;99.90
11609;DHT22;5860;52.018;8.536;2023-04-24T15:53:05;9.40;99.90
11609;DHT22;5860;52.018;8.536;2023-04-24T15:55:32;9.40;99.90
11609;DHT22;5860;52.018;8.536;2023-04-24T15:58:00;9.30;99.90
11609;DHT22;5860;52.018;8.536;2023-04-24T16:00:27;9.30;99.90
11609;DHT22;5860;52.018;8.536;2023-04-24T16:03:00;9.10;99.90
11609;DHT22;5860;52.018;8.536;2023-04-24T16:05:28;9.30;99.90
11609;DHT22;5860;52.018;8.536;2023-04-24T16:07:56;9.20;99.90
11609;DHT22;5860;52.018;8.536;2023-04-24T16:10:22;9.10;99.90
11609;DHT22;5860;52.018;8.536;2023-04-24T16:12:50;9.10;99.90
11609;DHT22;5860;52.018;8.536;2023-04-24T16:15:23;8.80;99.90
11609;DHT22;5860;52.018;8.536;2023-04-24T16:17:50;8.80;99.90